sensor_id;sensor_type;location;lat;lon;timestamp;temperature;humidity
20915;DHT22;10617;52.032;5.298;2022-11-15T00:02:13;7.80;99.90
20915;DHT22;10617;52.032;5.298;2022-11-15T00:06:15;7.80;99.90
20915;DHT22;10617;52.032;5.298;2022-11-15T00:10:16;7.80;99.90
20915;DHT22;10617;52.032;5.298;2022-11-15T00:14:18;7.80;99.90
20915;DHT22;10617;52.032;5.298;2022-11-15T00:18:19;7.80;99.90
20915;DHT22;10617;52.032;5.298;2022-11-15T00:22:21;7.80;99.90
20915;DHT22;10617;52.032;5.298;2022-11-15T00:26:23;7.80;99.90
20915;DHT22;10617;52.032;5.298;2022-11-15T00:30:25;7.80;99.90
20915;DHT22;10617;52.032;5.298;2022-11-15T00:34:27;7.80;99.90
20915;DHT22;10617;52.032;5.298;2022-11-15T00:38:35;7.80;99.90
20915;DHT22;10617;52.032;5.298;2022-11-15T00:42:37;7.80;99.90
20915;DHT22;10617;52.032;5.298;2022-11-15T00:46:39;7.80;99.90
20915;DHT22;10617;52.032;5.298;2022-11-15T00:50:40;7.80;99.90
20915;DHT22;10617;52.032;5.298;2022-11-15T00:54:42;7.80;99.90
20915;DHT22;10617;52.032;5.298;2022-11-15T00:58:44;7.80;99.90
20915;DHT22;10617;52.032;5.298;2022-11-15T01:02:45;7.80;99.90
20915;DHT22;10617;52.032;5.298;2022-11-15T01:06:47;7.90;99.90
20915;DHT22;10617;52.032;5.298;2022-11-15T01:10:48;7.90;99.90
20915;DHT22;10617;52.032;5.298;2022-11-15T01:14:50;7.90;99.90
20915;DHT22;10617;52.032;5.298;2022-11-15T01:18:52;8.00;99.90
20915;DHT22;10617;52.032;5.298;2022-11-15T01:22:53;8.00;99.90
20915;DHT22;10617;52.032;5.298;2022-11-15T01:26:55;8.10;99.90
20915;DHT22;10617;52.032;5.298;2022-11-15T01:30:57;8.10;99.90
20915;DHT22;10617;52.032;5.298;2022-11-15T01:34:59;8.10;99.90
20915;DHT22;10617;52.032;5.298;2022-11-15T01:39:00;8.10;99.90
20915;DHT22;10617;52.032;5.298;2022-11-15T01:47:27;8.20;99.90
20915;DHT22;10617;52.032;5.298;2022-11-15T01:51:30;8.20;99.90
20915;DHT22;10617;52.032;5.298;2022-11-15T01:55:33;8.30;99.90
20915;DHT22;10617;52.032;5.298;2022-11-15T01:59:34;8.30;99.90
20915;DHT22;10617;52.032;5.298;2022-11-15T02:03:49;8.30;99.90
20915;DHT22;10617;52.032;5.298;2022-11-15T02:07:53;8.40;99.90
20915;DHT22;10617;52.032;5.298;2022-11-15T02:11:55;8.40;99.90
20915;DHT22;10617;52.032;5.298;2022-11-15T02:24:23;8.60;99.90
20915;DHT22;10617;52.032;5.298;2022-11-15T02:28:47;8.60;99.90
20915;DHT22;10617;52.032;5.298;2022-11-15T02:32:52;8.60;99.90
20915;DHT22;10617;52.032;5.298;2022-11-15T02:41:04;8.70;99.90
20915;DHT22;10617;52.032;5.298;2022-11-15T02:45:07;8.80;99.90
20915;DHT22;10617;52.032;5.298;2022-11-15T02:49:11;8.80;99.90
20915;DHT22;10617;52.032;5.298;2022-11-15T02:53:13;8.90;99.90
20915;DHT22;10617;52.032;5.298;2022-11-15T02:57:16;8.90;99.90
20915;DHT22;10617;52.032;5.298;2022-11-15T03:05:37;8.90;99.90
20915;DHT22;10617;52.032;5.298;2022-11-15T03:09:45;9.00;99.90
20915;DHT22;10617;52.032;5.298;2022-11-15T03:18:00;9.10;99.90
20915;DHT22;10617;52.032;5.298;2022-11-15T03:22:03;9.10;99.90
20915;DHT22;10617;52.032;5.298;2022-11-15T03:26:08;9.10;99.90
20915;DHT22;10617;52.032;5.298;2022-11-15T03:30:11;9.20;99.90
20915;DHT22;10617;52.032;5.298;2022-11-15T03:38:24;9.30;99.90
20915;DHT22;10617;52.032;5.298;2022-11-15T03:42:28;9.30;99.90
20915;DHT22;10617;52.032;5.298;2022-11-15T03:46:32;9.40;99.90
20915;DHT22;10617;52.032;5.298;2022-11-15T03:50:34;9.40;99.90
20915;DHT22;10617;52.032;5.298;2022-11-15T03:54:36;9.50;99.90
20915;DHT22;10617;52.032;5.298;2022-11-15T04:03:57;9.60;99.90
20915;DHT22;10617;52.032;5.298;2022-11-15T04:07:58;9.70;99.90
20915;DHT22;10617;52.032;5.298;2022-11-15T04:12:00;9.70;99.90
20915;DHT22;10617;52.032;5.298;2022-11-15T04:16:01;9.80;99.90
20915;DHT22;10617;52.032;5.298;2022-11-15T04:20:14;9.80;99.90
20915;DHT22;10617;52.032;5.298;2022-11-15T04:24:34;9.90;99.90
20915;DHT22;10617;52.032;5.298;2022-11-15T04:28:36;9.90;99.90
20915;DHT22;10617;52.032;5.298;2022-11-15T04:32:57;9.90;99.90
20915;DHT22;10617;52.032;5.298;2022-11-15T04:36:59;10.00;99.90
20915;DHT22;10617;52.032;5.298;2022-11-15T04:41:13;10.00;99.90
20915;DHT22;10617;52.032;5.298;2022-11-15T04:45:14;10.00;99.90
20915;DHT22;10617;52.032;5.298;2022-11-15T04:49:16;10.00;99.90
20915;DHT22;10617;52.032;5.298;2022-11-15T04:53:18;10.00;99.90
20915;DHT22;10617;52.032;5.298;2022-11-15T04:57:19;10.10;99.90
20915;DHT22;10617;52.032;5.298;2022-11-15T05:01:21;10.10;99.90
20915;DHT22;10617;52.032;5.298;2022-11-15T05:05:23;10.10;99.90
20915;DHT22;10617;52.032;5.298;2022-11-15T05:09:25;10.10;99.90
20915;DHT22;10617;52.032;5.298;2022-11-15T05:13:26;10.10;99.90
20915;DHT22;10617;52.032;5.298;2022-11-15T05:17:28;10.20;99.90
20915;DHT22;10617;52.032;5.298;2022-11-15T05:21:30;10.20;99.90
20915;DHT22;10617;52.032;5.298;2022-11-15T05:30:35;10.30;99.90
20915;DHT22;10617;52.032;5.298;2022-11-15T05:34:37;10.30;99.90
20915;DHT22;10617;52.032;5.298;2022-11-15T05:38:38;10.30;99.90
20915;DHT22;10617;52.032;5.298;2022-11-15T05:42:40;10.40;99.90
20915;DHT22;10617;52.032;5.298;2022-11-15T05:46:42;10.40;99.90
20915;DHT22;10617;52.032;5.298;2022-11-15T05:50:45;10.40;99.90
20915;DHT22;10617;52.032;5.298;2022-11-15T05:54:47;10.50;99.90
20915;DHT22;10617;52.032;5.298;2022-11-15T05:58:49;10.50;99.90
20915;DHT22;10617;52.032;5.298;2022-11-15T06:02:54;10.60;99.90
20915;DHT22;10617;52.032;5.298;2022-11-15T06:06:57;10.60;99.90
20915;DHT22;10617;52.032;5.298;2022-11-15T06:11:03;10.70;99.90
20915;DHT22;10617;52.032;5.298;2022-11-15T06:15:05;10.70;99.90
20915;DHT22;10617;52.032;5.298;2022-11-15T06:19:07;10.70;99.90
20915;DHT22;10617;52.032;5.298;2022-11-15T06:23:08;10.80;99.90
20915;DHT22;10617;52.032;5.298;2022-11-15T06:27:11;10.70;99.90
20915;DHT22;10617;52.032;5.298;2022-11-15T06:31:12;10.80;99.90
20915;DHT22;10617;52.032;5.298;2022-11-15T06:35:14;10.80;99.90
20915;DHT22;10617;52.032;5.298;2022-11-15T06:39:16;10.80;99.90
20915;DHT22;10617;52.032;5.298;2022-11-15T06:43:17;10.80;99.90
20915;DHT22;10617;52.032;5.298;2022-11-15T06:47:19;10.90;99.90
20915;DHT22;10617;52.032;5.298;2022-11-15T06:51:20;10.90;99.90
20915;DHT22;10617;52.032;5.298;2022-11-15T06:55:22;10.90;99.90
20915;DHT22;10617;52.032;5.298;2022-11-15T06:59:24;10.90;99.90
20915;DHT22;10617;52.032;5.298;2022-11-15T07:03:25;10.90;99.90
20915;DHT22;10617;52.032;5.298;2022-11-15T07:07:28;10.90;99.90
20915;DHT22;10617;52.032;5.298;2022-11-15T07:11:29;10.90;99.90
20915;DHT22;10617;52.032;5.298;2022-11-15T07:15:31;10.90;99.90
20915;DHT22;10617;52.032;5.298;2022-11-15T07:19:32;11.00;99.90
20915;DHT22;10617;52.032;5.298;2022-11-15T07:23:37;10.90;99.90
20915;DHT22;10617;52.032;5.298;2022-11-15T07:27:42;11.00;99.90
20915;DHT22;10617;52.032;5.298;2022-11-15T07:31:43;10.90;99.90
20915;DHT22;10617;52.032;5.298;2022-11-15T07:35:45;10.90;99.90
20915;DHT22;10617;52.032;5.298;2022-11-15T07:39:49;11.00;99.90
20915;DHT22;10617;52.032;5.298;2022-11-15T07:43:51;11.00;99.90
20915;DHT22;10617;52.032;5.298;2022-11-15T07:47:53;11.00;99.90
20915;DHT22;10617;52.032;5.298;2022-11-15T07:51:55;11.00;99.90
20915;DHT22;10617;52.032;5.298;2022-11-15T07:55:56;11.10;99.90
20915;DHT22;10617;52.032;5.298;2022-11-15T07:59:58;11.10;99.90
20915;DHT22;10617;52.032;5.298;2022-11-15T08:04:00;11.10;99.90
20915;DHT22;10617;52.032;5.298;2022-11-15T08:08:01;11.10;99.90
20915;DHT22;10617;52.032;5.298;2022-11-15T08:12:03;11.10;99.90
20915;DHT22;10617;52.032;5.298;2022-11-15T08:16:05;11.20;99.90
20915;DHT22;10617;52.032;5.298;2022-11-15T08:20:07;11.20;99.90
20915;DHT22;10617;52.032;5.298;2022-11-15T08:24:09;11.20;99.90
20915;DHT22;10617;52.032;5.298;2022-11-15T08:28:11;11.30;99.90
20915;DHT22;10617;52.032;5.298;2022-11-15T08:32:12;11.20;99.90
20915;DHT22;10617;52.032;5.298;2022-11-15T08:36:15;11.30;99.90
20915;DHT22;10617;52.032;5.298;2022-11-15T08:40:17;11.30;99.90
20915;DHT22;10617;52.032;5.298;2022-11-15T08:44:20;11.40;99.90
20915;DHT22;10617;52.032;5.298;2022-11-15T08:48:21;11.40;99.90
20915;DHT22;10617;52.032;5.298;2022-11-15T08:52:23;11.40;99.90
20915;DHT22;10617;52.032;5.298;2022-11-15T08:56:25;11.50;99.90
20915;DHT22;10617;52.032;5.298;2022-11-15T09:00:26;11.60;99.90
20915;DHT22;10617;52.032;5.298;2022-11-15T09:04:28;11.60;99.90
20915;DHT22;10617;52.032;5.298;2022-11-15T09:08:30;11.70;99.90
20915;DHT22;10617;52.032;5.298;2022-11-15T09:12:47;11.80;99.90
20915;DHT22;10617;52.032;5.298;2022-11-15T09:16:49;11.90;99.90
20915;DHT22;10617;52.032;5.298;2022-11-15T09:20:51;11.90;99.90
20915;DHT22;10617;52.032;5.298;2022-11-15T09:24:55;11.90;99.90
20915;DHT22;10617;52.032;5.298;2022-11-15T09:28:57;11.90;99.90
20915;DHT22;10617;52.032;5.298;2022-11-15T09:33:05;12.00;99.90
20915;DHT22;10617;52.032;5.298;2022-11-15T09:37:07;12.00;99.90
20915;DHT22;10617;52.032;5.298;2022-11-15T09:45:13;12.10;99.90
20915;DHT22;10617;52.032;5.298;2022-11-15T09:49:16;12.20;99.90
20915;DHT22;10617;52.032;5.298;2022-11-15T09:58:05;12.40;99.90
20915;DHT22;10617;52.032;5.298;2022-11-15T10:06:23;12.80;99.90
20915;DHT22;10617;52.032;5.298;2022-11-15T10:10:39;12.70;99.90
20915;DHT22;10617;52.032;5.298;2022-11-15T10:14:42;12.70;99.90
20915;DHT22;10617;52.032;5.298;2022-11-15T10:22:56;12.70;99.90
20915;DHT22;10617;52.032;5.298;2022-11-15T10:26:58;12.70;99.90
20915;DHT22;10617;52.032;5.298;2022-11-15T10:31:00;12.90;99.90
20915;DHT22;10617;52.032;5.298;2022-11-15T10:35:16;13.30;99.90
20915;DHT22;10617;52.032;5.298;2022-11-15T10:39:17;13.70;99.90
20915;DHT22;10617;52.032;5.298;2022-11-15T10:48:29;13.80;99.90
20915;DHT22;10617;52.032;5.298;2022-11-15T10:52:31;13.90;99.90
20915;DHT22;10617;52.032;5.298;2022-11-15T10:56:34;14.20;99.90
20915;DHT22;10617;52.032;5.298;2022-11-15T11:00:36;14.70;99.90
20915;DHT22;10617;52.032;5.298;2022-11-15T11:04:50;15.30;99.90
20915;DHT22;10617;52.032;5.298;2022-11-15T11:08:58;16.10;99.90
20915;DHT22;10617;52.032;5.298;2022-11-15T11:13:13;16.90;99.90
20915;DHT22;10617;52.032;5.298;2022-11-15T11:21:31;17.60;99.90
20915;DHT22;10617;52.032;5.298;2022-11-15T11:47:11;17.10;99.90
20915;DHT22;10617;52.032;5.298;2022-11-15T11:51:49;17.30;99.90
20915;DHT22;10617;52.032;5.298;2022-11-15T11:59:58;17.40;99.90
20915;DHT22;10617;52.032;5.298;2022-11-15T12:04:13;17.30;99.90
20915;DHT22;10617;52.032;5.298;2022-11-15T12:08:27;17.30;99.90
20915;DHT22;10617;52.032;5.298;2022-11-15T12:12:41;17.30;99.90
20915;DHT22;10617;52.032;5.298;2022-11-15T12:16:45;17.20;99.90
20915;DHT22;10617;52.032;5.298;2022-11-15T12:20:54;17.10;99.90
20915;DHT22;10617;52.032;5.298;2022-11-15T12:33:28;16.70;99.90
20915;DHT22;10617;52.032;5.298;2022-11-15T12:41:40;16.70;99.90
20915;DHT22;10617;52.032;5.298;2022-11-15T12:45:45;16.80;99.90
20915;DHT22;10617;52.032;5.298;2022-11-15T12:49:48;16.80;99.90
20915;DHT22;10617;52.032;5.298;2022-11-15T12:53:49;17.00;99.90
20915;DHT22;10617;52.032;5.298;2022-11-15T12:57:51;17.20;99.90
20915;DHT22;10617;52.032;5.298;2022-11-15T13:01:55;17.20;99.90
20915;DHT22;10617;52.032;5.298;2022-11-15T13:05:58;17.10;99.90
20915;DHT22;10617;52.032;5.298;2022-11-15T13:10:00;17.00;99.90
20915;DHT22;10617;52.032;5.298;2022-11-15T13:14:02;16.70;99.90
20915;DHT22;10617;52.032;5.298;2022-11-15T13:18:31;16.40;99.90
20915;DHT22;10617;52.032;5.298;2022-11-15T13:27:00;15.90;99.90
20915;DHT22;10617;52.032;5.298;2022-11-15T13:31:03;15.70;99.90
20915;DHT22;10617;52.032;5.298;2022-11-15T13:35:21;15.50;99.90
20915;DHT22;10617;52.032;5.298;2022-11-15T13:43:36;15.10;99.90
20915;DHT22;10617;52.032;5.298;2022-11-15T13:47:37;15.10;99.90
20915;DHT22;10617;52.032;5.298;2022-11-15T13:55:43;14.90;99.90
20915;DHT22;10617;52.032;5.298;2022-11-15T13:59:49;14.90;99.90
20915;DHT22;10617;52.032;5.298;2022-11-15T14:03:55;14.80;99.90
20915;DHT22;10617;52.032;5.298;2022-11-15T14:07:58;14.70;99.90
20915;DHT22;10617;52.032;5.298;2022-11-15T14:12:02;14.70;99.90
20915;DHT22;10617;52.032;5.298;2022-11-15T14:16:22;14.60;99.90
20915;DHT22;10617;52.032;5.298;2022-11-15T14:20:30;14.50;99.90
20915;DHT22;10617;52.032;5.298;2022-11-15T14:24:33;14.30;99.90
20915;DHT22;10617;52.032;5.298;2022-11-15T14:28:35;14.30;99.90
20915;DHT22;10617;52.032;5.298;2022-11-15T14:32:44;14.30;99.90
20915;DHT22;10617;52.032;5.298;2022-11-15T14:36:46;14.30;99.90
20915;DHT22;10617;52.032;5.298;2022-11-15T14:40:48;14.20;99.90
20915;DHT22;10617;52.032;5.298;2022-11-15T14:44:50;14.10;99.90
20915;DHT22;10617;52.032;5.298;2022-11-15T14:48:51;14.10;99.90
20915;DHT22;10617;52.032;5.298;2022-11-15T14:52:53;14.10;99.90
20915;DHT22;10617;52.032;5.298;2022-11-15T14:56:55;14.00;99.90
20915;DHT22;10617;52.032;5.298;2022-11-15T15:00:56;14.00;99.90
20915;DHT22;10617;52.032;5.298;2022-11-15T15:04:58;14.00;99.90
20915;DHT22;10617;52.032;5.298;2022-11-15T15:09:02;13.90;99.90
20915;DHT22;10617;52.032;5.298;2022-11-15T15:13:04;13.80;99.90
20915;DHT22;10617;52.032;5.298;2022-11-15T15:17:06;13.80;99.90
20915;DHT22;10617;52.032;5.298;2022-11-15T15:21:16;13.70;99.90
20915;DHT22;10617;52.032;5.298;2022-11-15T15:25:30;13.70;99.90
20915;DHT22;10617;52.032;5.298;2022-11-15T15:29:33;13.70;99.90
20915;DHT22;10617;52.032;5.298;2022-11-15T15:33:34;13.70;99.90
20915;DHT22;10617;52.032;5.298;2022-11-15T15:37:36;13.70;99.90
20915;DHT22;10617;52.032;5.298;2022-11-15T15:41:37;13.70;99.90
20915;DHT22;10617;52.032;5.298;2022-11-15T15:45:40;13.60;99.90
20915;DHT22;10617;52.032;5.298;2022-11-15T15:49:42;13.60;99.90
20915;DHT22;10617;52.032;5.298;2022-11-15T15:53:44;13.60;99.90
20915;DHT22;10617;52.032;5.298;2022-11-15T15:57:46;13.60;99.90
20915;DHT22;10617;52.032;5.298;2022-11-15T16:01:47;13.50;99.90
20915;DHT22;10617;52.032;5.298;2022-11-15T16:05:49;13.50;99.90
20915;DHT22;10617;52.032;5.298;2022-11-15T16:09:51;13.50;99.90
20915;DHT22;10617;52.032;5.298;2022-11-15T16:14:02;13.50;99.90
20915;DHT22;10617;52.032;5.298;2022-11-15T16:18:04;13.50;99.90
20915;DHT22;10617;52.032;5.298;2022-11-15T16:22:06;13.50;99.90
20915;DHT22;10617;52.032;5.298;2022-11-15T16:26:14;13.50;99.90
20915;DHT22;10617;52.032;5.298;2022-11-15T16:30:20;13.50;99.90
20915;DHT22;10617;52.032;5.298;2022-11-15T16:34:22;13.50;99.90
20915;DHT22;10617;52.032;5.298;2022-11-15T16:38:24;13.50;99.90
20915;DHT22;10617;52.032;5.298;2022-11-15T16:42:25;13.50;99.90
20915;DHT22;10617;52.032;5.298;2022-11-15T16:46:27;13.40;99.90
20915;DHT22;10617;52.032;5.298;2022-11-15T16:50:31;13.40;99.90
20915;DHT22;10617;52.032;5.298;2022-11-15T16:54:35;13.40;99.90
20915;DHT22;10617;52.032;5.298;2022-11-15T16:58:37;13.40;99.90
20915;DHT22;10617;52.032;5.298;2022-11-15T17:02:38;13.40;99.90
20915;DHT22;10617;52.032;5.298;2022-11-15T17:06:40;13.40;99.90
20915;DHT22;10617;52.032;5.298;2022-11-15T17:10:42;13.30;99.90
20915;DHT22;10617;52.032;5.298;2022-11-15T17:14:44;13.30;99.90
20915;DHT22;10617;52.032;5.298;2022-11-15T17:18:49;13.20;99.90
20915;DHT22;10617;52.032;5.298;2022-11-15T17:22:51;13.10;99.90
20915;DHT22;10617;52.032;5.298;2022-11-15T17:26:53;12.90;99.90
20915;DHT22;10617;52.032;5.298;2022-11-15T17:30:55;12.90;99.90
20915;DHT22;10617;52.032;5.298;2022-11-15T17:34:56;12.80;99.90
20915;DHT22;10617;52.032;5.298;2022-11-15T17:38:58;12.80;99.90
20915;DHT22;10617;52.032;5.298;2022-11-15T17:43:00;12.70;99.90
20915;DHT22;10617;52.032;5.298;2022-11-15T17:47:03;12.60;99.90
20915;DHT22;10617;52.032;5.298;2022-11-15T17:51:05;12.60;99.90
20915;DHT22;10617;52.032;5.298;2022-11-15T17:55:07;12.60;99.90
20915;DHT22;10617;52.032;5.298;2022-11-15T17:59:09;12.50;99.90
20915;DHT22;10617;52.032;5.298;2022-11-15T18:03:15;12.40;99.90
20915;DHT22;10617;52.032;5.298;2022-11-15T18:07:16;12.30;99.90
20915;DHT22;10617;52.032;5.298;2022-11-15T18:11:19;12.30;99.90
20915;DHT22;10617;52.032;5.298;2022-11-15T18:15:22;12.30;99.90
20915;DHT22;10617;52.032;5.298;2022-11-15T18:19:23;12.30;99.90
20915;DHT22;10617;52.032;5.298;2022-11-15T18:23:25;12.20;99.90
20915;DHT22;10617;52.032;5.298;2022-11-15T18:27:26;12.20;99.90
20915;DHT22;10617;52.032;5.298;2022-11-15T18:31:28;12.20;99.90
20915;DHT22;10617;52.032;5.298;2022-11-15T18:35:30;12.20;99.90
20915;DHT22;10617;52.032;5.298;2022-11-15T18:39:32;12.20;99.90
20915;DHT22;10617;52.032;5.298;2022-11-15T18:43:34;12.20;99.90
20915;DHT22;10617;52.032;5.298;2022-11-15T18:47:36;12.20;99.90
20915;DHT22;10617;52.032;5.298;2022-11-15T18:51:38;12.20;99.90
20915;DHT22;10617;52.032;5.298;2022-11-15T18:55:42;12.20;99.90
20915;DHT22;10617;52.032;5.298;2022-11-15T18:59:43;12.20;99.90
20915;DHT22;10617;52.032;5.298;2022-11-15T19:03:46;12.20;99.90
20915;DHT22;10617;52.032;5.298;2022-11-15T19:07:48;12.20;99.90
20915;DHT22;10617;52.032;5.298;2022-11-15T19:11:49;12.20;99.90
20915;DHT22;10617;52.032;5.298;2022-11-15T19:15:58;12.30;99.90
20915;DHT22;10617;52.032;5.298;2022-11-15T19:20:00;12.30;99.90
20915;DHT22;10617;52.032;5.298;2022-11-15T19:24:02;12.30;99.90
20915;DHT22;10617;52.032;5.298;2022-11-15T19:28:03;12.30;99.90
20915;DHT22;10617;52.032;5.298;2022-11-15T19:32:05;12.30;99.90
20915;DHT22;10617;52.032;5.298;2022-11-15T19:36:09;12.30;99.90
20915;DHT22;10617;52.032;5.298;2022-11-15T19:40:11;12.30;99.90
20915;DHT22;10617;52.032;5.298;2022-11-15T19:44:12;12.20;99.90
20915;DHT22;10617;52.032;5.298;2022-11-15T19:48:14;12.20;99.90
20915;DHT22;10617;52.032;5.298;2022-11-15T19:52:16;12.30;99.90
20915;DHT22;10617;52.032;5.298;2022-11-15T19:56:18;12.30;99.90
20915;DHT22;10617;52.032;5.298;2022-11-15T20:00:19;12.30;99.90
20915;DHT22;10617;52.032;5.298;2022-11-15T20:04:21;12.30;99.90
20915;DHT22;10617;52.032;5.298;2022-11-15T20:08:23;12.30;99.90
20915;DHT22;10617;52.032;5.298;2022-11-15T20:12:24;12.30;99.90
20915;DHT22;10617;52.032;5.298;2022-11-15T20:16:26;12.30;99.90
20915;DHT22;10617;52.032;5.298;2022-11-15T20:20:28;12.30;99.90
20915;DHT22;10617;52.032;5.298;2022-11-15T20:24:30;12.30;99.90
20915;DHT22;10617;52.032;5.298;2022-11-15T20:28:32;12.30;99.90
20915;DHT22;10617;52.032;5.298;2022-11-15T20:32:36;12.30;99.90
20915;DHT22;10617;52.032;5.298;2022-11-15T20:36:38;12.30;99.90
20915;DHT22;10617;52.032;5.298;2022-11-15T20:40:39;12.30;99.90
20915;DHT22;10617;52.032;5.298;2022-11-15T20:44:43;12.30;99.90
20915;DHT22;10617;52.032;5.298;2022-11-15T20:48:44;12.30;99.90
20915;DHT22;10617;52.032;5.298;2022-11-15T20:52:46;12.30;99.90
20915;DHT22;10617;52.032;5.298;2022-11-15T20:56:47;12.30;99.90
20915;DHT22;10617;52.032;5.298;2022-11-15T21:00:49;12.30;99.90
20915;DHT22;10617;52.032;5.298;2022-11-15T21:04:51;12.30;99.90
20915;DHT22;10617;52.032;5.298;2022-11-15T21:08:53;12.40;99.90
20915;DHT22;10617;52.032;5.298;2022-11-15T21:13:13;12.30;99.90
20915;DHT22;10617;52.032;5.298;2022-11-15T21:17:15;12.30;99.90
20915;DHT22;10617;52.032;5.298;2022-11-15T21:21:16;12.30;99.90
20915;DHT22;10617;52.032;5.298;2022-11-15T21:35:25;12.40;99.90
20915;DHT22;10617;52.032;5.298;2022-11-15T21:39:27;12.40;99.90
20915;DHT22;10617;52.032;5.298;2022-11-15T21:43:28;12.30;99.90
20915;DHT22;10617;52.032;5.298;2022-11-15T21:47:30;12.40;99.90
20915;DHT22;10617;52.032;5.298;2022-11-15T21:51:32;12.40;99.90
20915;DHT22;10617;52.032;5.298;2022-11-15T21:55:33;12.40;99.90
20915;DHT22;10617;52.032;5.298;2022-11-15T21:59:39;12.40;99.90
20915;DHT22;10617;52.032;5.298;2022-11-15T22:04:00;12.30;99.90
20915;DHT22;10617;52.032;5.298;2022-11-15T22:08:02;12.40;99.90
20915;DHT22;10617;52.032;5.298;2022-11-15T22:12:03;12.30;99.90
20915;DHT22;10617;52.032;5.298;2022-11-15T22:16:05;12.40;99.90
20915;DHT22;10617;52.032;5.298;2022-11-15T22:20:07;12.40;99.90
20915;DHT22;10617;52.032;5.298;2022-11-15T22:24:29;12.40;99.90
20915;DHT22;10617;52.032;5.298;2022-11-15T22:28:30;12.40;99.90
20915;DHT22;10617;52.032;5.298;2022-11-15T22:32:33;12.40;99.90
20915;DHT22;10617;52.032;5.298;2022-11-15T22:36:34;12.40;99.90
20915;DHT22;10617;52.032;5.298;2022-11-15T22:40:52;12.40;99.90
20915;DHT22;10617;52.032;5.298;2022-11-15T22:44:54;12.40;99.90
20915;DHT22;10617;52.032;5.298;2022-11-15T22:48:56;12.40;99.90
20915;DHT22;10617;52.032;5.298;2022-11-15T22:53:02;12.40;99.90
20915;DHT22;10617;52.032;5.298;2022-11-15T22:57:04;12.40;99.90
20915;DHT22;10617;52.032;5.298;2022-11-15T23:01:05;12.40;99.90
20915;DHT22;10617;52.032;5.298;2022-11-15T23:05:07;12.30;99.90
20915;DHT22;10617;52.032;5.298;2022-11-15T23:09:09;12.40;99.90
20915;DHT22;10617;52.032;5.298;2022-11-15T23:13:11;12.40;99.90
20915;DHT22;10617;52.032;5.298;2022-11-15T23:17:19;12.30;99.90
20915;DHT22;10617;52.032;5.298;2022-11-15T23:21:22;12.30;99.90
20915;DHT22;10617;52.032;5.298;2022-11-15T23:25:42;12.30;99.90
20915;DHT22;10617;52.032;5.298;2022-11-15T23:29:44;12.40;99.90
20915;DHT22;10617;52.032;5.298;2022-11-15T23:34:05;12.40;99.90
20915;DHT22;10617;52.032;5.298;2022-11-15T23:38:06;12.40;99.90
20915;DHT22;10617;52.032;5.298;2022-11-15T23:42:08;12.40;99.90
20915;DHT22;10617;52.032;5.298;2022-11-15T23:46:19;12.40;99.90
20915;DHT22;10617;52.032;5.298;2022-11-15T23:50:21;12.40;99.90
20915;DHT22;10617;52.032;5.298;2022-11-15T23:54:23;12.30;99.90
20915;DHT22;10617;52.032;5.298;2022-11-15T23:58:24;12.40;99.90
